Time;durP1;ratioP1;P1;durP2;ratioP2;P2;SDS_P1;SDS_P2;PMS_P1;PMS_P2;Temp;Humidity;BMP_temperature;BMP_pressure;BME280_temperature;BME280_humidity;BME280_pressure;Samples;Min_cycle;Max_cycle;Signal;HPM_P1;HPM_P2
2023/01/13 00:03:03;;;;;;;;;;;;;;;11.24;77.59;101871.25;5069758;28;19920;-87
2023/01/13 00:08:59;;;;;;;;;;;;;;;11.24;77.22;101880.00;5071194;28;19942;-87
2023/01/13 00:11:25;;;;;;;;;;;;;;;11.28;76.73;101881.09;5053257;28;19916;-86
2023/01/13 00:14:15;;;;;;;;;;;;;;;11.23;77.30;101875.56;5086016;28;19962;-86
2023/01/13 00:17:01;;;;;;;;;;;;;;;11.18;77.18;101880.50;5001894;28;19974;-86
2023/01/13 00:19:48;;;;;;;;;;;;;;;11.22;77.13;101876.38;4992825;28;19975;-85
2023/01/13 00:25:36;;;;;;;;;;;;;;;11.17;77.03;101862.06;4986911;28;19921;-87
2023/01/13 00:31:04;;;;;;;;;;;;;;;11.14;77.11;101869.72;5084138;28;19919;-87
2023/01/13 00:33:30;;;;;;;;;;;;;;;11.16;77.13;101873.34;5055682;28;19917;-86
2023/01/13 00:35:56;;;;;;;;;;;;;;;11.18;77.13;101877.88;5070167;28;19913;-86
2023/01/13 00:38:21;;;;;;;;;;;;;;;11.19;77.08;101882.28;5076856;28;19917;-87
2023/01/13 00:40:56;;;;;;;;;;;;;;;11.15;77.11;101885.53;5083002;28;19920;-86
2023/01/13 00:43:21;;;;;;;;;;;;;;;11.15;76.95;101877.69;5071035;28;20230;-86
2023/01/13 00:45:50;;;;;;;;;;;;;;;11.15;77.09;101889.81;5089996;28;20050;-86
2023/01/13 00:48:15;;;;;;;;;;;;;;;11.14;77.11;101890.63;5087918;28;19955;-86
2023/01/13 00:50:41;;;;;;;;;;;;;;;11.18;77.08;101874.34;5073072;28;20413;-85
2023/01/13 00:53:06;;;;;;;;;;;;;;;11.16;77.18;101878.56;5089388;28;20424;-85
2023/01/13 00:55:32;;;;;;;;;;;;;;;11.13;77.17;101883.56;5074193;28;20271;-85
2023/01/13 00:58:02;;;;;;;;;;;;;;;11.15;77.08;101877.69;5089141;28;20680;-85
2023/01/13 01:00:29;;;;;;;;;;;;;;;11.15;76.85;101866.28;5068618;28;19917;-86
2023/01/13 01:02:54;;;;;;;;;;;;;;;11.17;76.64;101873.44;5080833;28;19974;-86
2023/01/13 01:05:21;;;;;;;;;;;;;;;11.11;76.82;101874.72;5074431;28;20462;-86
2023/01/13 01:07:46;;;;;;;;;;;;;;;11.16;76.96;101875.97;5089016;28;19916;-86
2023/01/13 01:10:12;;;;;;;;;;;;;;;11.15;76.88;101862.00;5083047;28;19923;-86
2023/01/13 01:12:37;;;;;;;;;;;;;;;11.14;77.01;101872.31;5092180;28;20416;-87
2023/01/13 01:15:04;;;;;;;;;;;;;;;11.14;76.88;101873.22;5099402;28;19912;-87
2023/01/13 01:17:30;;;;;;;;;;;;;;;11.16;76.82;101865.50;5089076;28;19931;-87
2023/01/13 01:19:55;;;;;;;;;;;;;;;11.13;76.56;101878.34;5089977;28;19916;-87
2023/01/13 01:22:21;;;;;;;;;;;;;;;11.11;76.93;101859.97;5103243;28;20381;-87
2023/01/13 01:24:46;;;;;;;;;;;;;;;11.08;76.97;101874.50;5075492;28;19916;-87
2023/01/13 01:27:12;;;;;;;;;;;;;;;11.13;76.71;101865.28;5089020;28;20377;-87
2023/01/13 01:29:37;;;;;;;;;;;;;;;11.10;77.10;101863.34;5076394;28;19913;-88
2023/01/13 01:32:02;;;;;;;;;;;;;;;11.10;76.73;101868.59;5089406;28;20392;-88
2023/01/13 01:34:28;;;;;;;;;;;;;;;11.08;76.78;101869.28;5088860;28;20348;-87
2023/01/13 01:36:53;;;;;;;;;;;;;;;11.04;77.19;101869.88;5055524;28;20406;-87
2023/01/13 01:39:19;;;;;;;;;;;;;;;11.03;77.08;101871.59;5073644;28;20309;-87
2023/01/13 01:43:57;;;;;;;;;;;;;;;11.06;77.16;101869.16;5089196;28;20386;-87
2023/01/13 01:44:41;;;;;;;;;;;;;;;11.08;76.82;101864.97;5086492;28;19912;-87
2023/01/13 01:50:29;;;;;;;;;;;;;;;11.06;76.66;101873.50;5030817;28;19924;-87
2023/01/13 01:52:56;;;;;;;;;;;;;;;11.04;77.11;101862.03;5030469;28;19971;-87
2023/01/13 01:55:23;;;;;;;;;;;;;;;10.98;77.44;101883.41;5023505;28;20401;-87
2023/01/13 01:57:54;;;;;;;;;;;;;;;11.08;76.95;101879.75;5038966;28;19912;-87
2023/01/13 02:00:20;;;;;;;;;;;;;;;11.05;77.06;101876.91;5073084;28;19935;-87
2023/01/13 02:02:46;;;;;;;;;;;;;;;11.06;76.98;101878.72;5083127;28;20398;-88
2023/01/13 02:05:11;;;;;;;;;;;;;;;11.02;76.81;101874.09;5036669;28;19917;-87
2023/01/13 02:07:37;;;;;;;;;;;;;;;11.01;77.05;101870.56;5089110;28;20011;-87
2023/01/13 02:10:37;;;;;;;;;;;;;;;11.02;76.84;101871.47;5088572;28;19912;-86
2023/01/13 02:13:06;;;;;;;;;;;;;;;10.99;76.92;101872.16;5083918;28;19931;-87
2023/01/13 02:15:57;;;;;;;;;;;;;;;10.96;77.37;101871.94;5071839;28;19978;-87
2023/01/13 02:18:41;;;;;;;;;;;;;;;10.98;77.13;101863.44;5067712;28;19916;-86
2023/01/13 02:21:12;;;;;;;;;;;;;;;10.96;76.86;101856.25;5074044;28;20420;-86
2023/01/13 02:26:27;;;;;;;;;;;;;;;10.97;76.79;101858.09;5072241;28;19919;-86
2023/01/13 02:31:43;;;;;;;;;;;;;;;10.97;77.04;101856.38;5063640;28;20015;-86
2023/01/13 02:34:12;;;;;;;;;;;;;;;10.91;76.89;101850.72;5086731;28;19916;-86
2023/01/13 02:36:37;;;;;;;;;;;;;;;10.94;77.15;101844.78;5088279;28;20571;-87
2023/01/13 02:39:26;;;;;;;;;;;;;;;10.94;77.20;101847.41;5072681;28;20011;-86
2023/01/13 02:44:46;;;;;;;;;;;;;;;10.92;77.14;101849.00;5072342;28;19959;-86
2023/01/13 02:47:17;;;;;;;;;;;;;;;10.90;77.04;101848.91;5098385;28;20374;-86
2023/01/13 02:49:47;;;;;;;;;;;;;;;10.92;77.10;101849.94;5068355;28;19927;-86
2023/01/13 02:52:15;;;;;;;;;;;;;;;10.94;77.14;101852.63;5086267;28;20373;-87
2023/01/13 02:54:42;;;;;;;;;;;;;;;10.95;77.10;101852.75;5087574;28;19966;-86
2023/01/13 02:57:08;;;;;;;;;;;;;;;10.91;76.93;101857.66;5088217;28;20396;-86
2023/01/13 02:59:34;;;;;;;;;;;;;;;10.91;76.90;101860.28;5088272;28;19924;-86
2023/01/13 03:02:06;;;;;;;;;;;;;;;10.90;76.93;101864.59;5072860;28;19964;-86
2023/01/13 03:05:02;;;;;;;;;;;;;;;10.90;77.19;101851.53;5057413;28;19936;-86
2023/01/13 03:07:30;;;;;;;;;;;;;;;10.93;76.72;101862.19;5084836;28;19912;-84
2023/01/13 03:09:58;;;;;;;;;;;;;;;10.88;77.31;101866.19;5102067;28;20309;-86
2023/01/13 03:12:27;;;;;;;;;;;;;;;10.87;77.30;101861.75;5074626;28;19921;-86
2023/01/13 03:14:55;;;;;;;;;;;;;;;10.88;77.07;101857.41;5070360;28;19921;-87
2023/01/13 03:17:23;;;;;;;;;;;;;;;10.86;77.19;101854.72;5072260;28;20396;-87
2023/01/13 03:19:56;;;;;;;;;;;;;;;10.88;77.21;101849.59;5087863;28;19919;-86
2023/01/13 03:22:22;;;;;;;;;;;;;;;10.87;77.03;101861.75;5085029;28;19925;-86
2023/01/13 03:25:18;;;;;;;;;;;;;;;10.87;77.23;101855.63;5084787;28;20310;-86
2023/01/13 03:27:50;;;;;;;;;;;;;;;10.85;76.91;101857.22;5068342;28;20417;-85
2023/01/13 03:30:37;;;;;;;;;;;;;;;10.85;77.41;101862.44;5075044;28;20440;-85
2023/01/13 03:33:12;;;;;;;;;;;;;;;10.90;76.90;101863.66;5084640;28;20409;-85
2023/01/13 03:35:45;;;;;;;;;;;;;;;10.86;76.74;101859.94;5072117;28;20401;-86
2023/01/13 03:38:33;;;;;;;;;;;;;;;10.86;76.81;101862.56;5086799;28;20001;-86
2023/01/13 03:41:09;;;;;;;;;;;;;;;10.89;77.00;101864.47;5071427;28;19928;-86
2023/01/13 03:46:46;;;;;;;;;;;;;;;10.88;76.74;101868.81;5069644;28;20015;-85
2023/01/13 03:49:26;;;;;;;;;;;;;;;10.83;76.77;101867.56;5077281;28;20194;-85
2023/01/13 03:51:53;;;;;;;;;;;;;;;10.82;77.08;101875.31;5053867;28;19931;-86
2023/01/13 03:54:18;;;;;;;;;;;;;;;10.89;77.14;101872.31;5087304;28;19914;-83
2023/01/13 03:57:10;;;;;;;;;;;;;;;10.85;76.83;101865.06;5071337;28;19917;-86
2023/01/13 03:59:51;;;;;;;;;;;;;;;10.83;77.29;101878.00;5053040;28;19919;-85
2023/01/13 04:02:36;;;;;;;;;;;;;;;10.83;77.12;101878.00;5052872;28;19920;-85
2023/01/13 04:05:16;;;;;;;;;;;;;;;10.87;76.54;101872.19;5053327;28;19912;-85
2023/01/13 04:07:46;;;;;;;;;;;;;;;10.83;77.16;101879.72;5071096;28;19913;-86
2023/01/13 04:10:13;;;;;;;;;;;;;;;10.83;76.97;101872.78;5069960;28;20011;-86
2023/01/13 04:13:03;;;;;;;;;;;;;;;10.82;76.80;101883.16;5086014;28;19916;-86
2023/01/13 04:15:38;;;;;;;;;;;;;;;10.79;76.69;101870.75;5081471;28;19912;-86
2023/01/13 04:18:10;;;;;;;;;;;;;;;10.77;76.76;101878.50;5098560;28;20351;-86
2023/01/13 04:20:36;;;;;;;;;;;;;;;10.74;76.83;101875.66;5082247;28;19924;-85
2023/01/13 04:23:01;;;;;;;;;;;;;;;10.77;76.62;101880.19;5090214;28;19917;-86
2023/01/13 04:25:27;;;;;;;;;;;;;;;10.82;76.37;101885.75;5086317;28;19998;-87
2023/01/13 04:27:53;;;;;;;;;;;;;;;10.77;76.64;101885.41;5053339;28;20286;-86
2023/01/13 04:30:19;;;;;;;;;;;;;;;10.73;76.96;101894.75;5070072;28;19912;-85
2023/01/13 04:32:44;;;;;;;;;;;;;;;10.74;76.52;101893.94;5088969;28;20374;-85
2023/01/13 04:35:10;;;;;;;;;;;;;;;10.80;76.73;101890.88;5086600;28;19954;-84
2023/01/13 04:37:35;;;;;;;;;;;;;;;10.81;76.51;101895.28;5089571;28;20472;-85
2023/01/13 04:40:00;;;;;;;;;;;;;;;10.77;76.74;101896.78;5086907;28;19916;-85
2023/01/13 04:42:26;;;;;;;;;;;;;;;10.76;76.81;101901.91;5070634;28;19921;-86
2023/01/13 04:44:51;;;;;;;;;;;;;;;10.72;76.98;101900.75;5086566;28;20313;-85
2023/01/13 04:47:17;;;;;;;;;;;;;;;10.68;76.69;101895.22;5083465;28;20356;-86
2023/01/13 04:49:42;;;;;;;;;;;;;;;10.73;76.94;101899.06;5095423;28;20355;-87
2023/01/13 04:52:07;;;;;;;;;;;;;;;10.72;76.89;101899.88;5080330;28;19913;-85
2023/01/13 04:54:33;;;;;;;;;;;;;;;10.69;77.03;101903.16;5096559;28;20073;-88
2023/01/13 04:56:58;;;;;;;;;;;;;;;10.70;76.77;101899.75;5086745;28;20662;-88
2023/01/13 04:59:24;;;;;;;;;;;;;;;10.69;76.72;101902.25;5052832;28;19912;-88
2023/01/13 05:01:49;;;;;;;;;;;;;;;10.66;77.32;101904.66;5070461;28;19923;-86
2023/01/13 05:04:15;;;;;;;;;;;;;;;10.70;77.16;101910.19;5070312;28;20019;-85
2023/01/13 05:06:41;;;;;;;;;;;;;;;10.67;77.26;101904.78;5052494;28;19932;-85
2023/01/13 05:09:06;;;;;;;;;;;;;;;10.66;77.08;101907.25;5069512;28;19912;-87
2023/01/13 05:17:00;;;;;;;;;;;;;;;10.65;76.66;101918.53;5067225;28;19961;-87
2023/01/13 05:19:26;;;;;;;;;;;;;;;10.68;76.63;101917.00;5086329;28;20014;-86
2023/01/13 05:27:19;;;;;;;;;;;;;;;10.62;76.71;101923.50;5073839;28;20294;-87
2023/01/13 05:29:45;;;;;;;;;;;;;;;10.63;76.70;101920.13;5074053;28;19912;-87
2023/01/13 05:32:10;;;;;;;;;;;;;;;10.65;76.71;101923.75;5095779;28;19917;-85
2023/01/13 05:34:36;;;;;;;;;;;;;;;10.61;77.18;101924.31;5089851;28;20407;-86
2023/01/13 05:37:02;;;;;;;;;;;;;;;10.61;76.95;101930.44;5055926;28;20515;-86
2023/01/13 05:43:18;;;;;;;;;;;;;;;10.56;77.43;101937.97;5089853;28;20409;-86
2023/01/13 05:44:56;;;;;;;;;;;;;;;10.63;77.14;101934.06;5085621;28;19923;-86
2023/01/13 05:47:22;;;;;;;;;;;;;;;10.60;76.83;101931.22;5086282;28;20310;-87
2023/01/13 05:49:47;;;;;;;;;;;;;;;10.62;76.70;101932.25;5096288;28;20407;-87
2023/01/13 05:52:13;;;;;;;;;;;;;;;10.59;77.07;101921.59;5079558;28;20410;-86
2023/01/13 05:54:40;;;;;;;;;;;;;;;10.65;76.98;101923.75;5070223;28;20397;-86
2023/01/13 05:57:05;;;;;;;;;;;;;;;10.64;77.00;101922.81;5082902;28;20409;-87
2023/01/13 05:59:30;;;;;;;;;;;;;;;10.62;77.01;101924.41;5073351;28;19938;-84
2023/01/13 06:01:56;;;;;;;;;;;;;;;10.61;76.72;101924.31;5088359;28;19927;-86
2023/01/13 06:04:21;;;;;;;;;;;;;;;10.53;77.08;101924.66;5073313;28;20009;-87
2023/01/13 06:06:47;;;;;;;;;;;;;;;10.58;76.90;101931.13;5089341;28;20464;-87
2023/01/13 06:09:13;;;;;;;;;;;;;;;10.60;76.89;101939.06;5088509;28;19999;-87
2023/01/13 06:11:38;;;;;;;;;;;;;;;10.64;76.55;101937.59;5067760;28;20007;-87
2023/01/13 06:14:04;;;;;;;;;;;;;;;10.57;76.86;101947.59;5055002;28;20411;-87
2023/01/13 06:16:29;;;;;;;;;;;;;;;10.57;76.71;101947.59;5079969;28;20389;-86
2023/01/13 06:18:54;;;;;;;;;;;;;;;10.53;77.20;101942.03;5080575;28;20432;-86
2023/01/13 06:21:20;;;;;;;;;;;;;;;10.57;76.98;101947.59;5053071;28;20409;-86
2023/01/13 06:23:46;;;;;;;;;;;;;;;10.62;76.65;101947.03;5066209;28;19912;-88
2023/01/13 06:26:15;;;;;;;;;;;;;;;10.55;76.79;101948.28;5096258;28;20352;-86
2023/01/13 06:28:41;;;;;;;;;;;;;;;10.51;76.78;101951.47;5067691;28;19916;-87
2023/01/13 06:31:06;;;;;;;;;;;;;;;10.47;77.17;101952.03;5069911;28;20015;-86
2023/01/13 06:33:32;;;;;;;;;;;;;;;10.52;77.10;101951.59;5078767;28;20159;-85
2023/01/13 06:35:59;;;;;;;;;;;;;;;10.54;76.76;101952.59;5088063;28;19920;-85
2023/01/13 06:38:25;;;;;;;;;;;;;;;10.52;77.16;101955.88;5076961;28;20336;-85
2023/01/13 06:40:50;;;;;;;;;;;;;;;10.55;76.72;101951.78;5058708;28;19928;-85
2023/01/13 06:43:15;;;;;;;;;;;;;;;10.52;76.79;101956.81;5082862;28;20454;-85
2023/01/13 06:45:45;;;;;;;;;;;;;;;10.54;76.75;101951.66;5074045;28;19919;-86
2023/01/13 06:48:12;;;;;;;;;;;;;;;10.55;76.64;101954.41;5079718;28;20002;-86
2023/01/13 06:50:37;;;;;;;;;;;;;;;10.49;76.88;101951.34;5076947;28;19966;-85
2023/01/13 06:53:03;;;;;;;;;;;;;;;10.50;77.12;101953.19;5076219;28;19924;-87
2023/01/13 06:55:28;;;;;;;;;;;;;;;10.52;76.77;101953.25;5072147;28;19912;-86
2023/01/13 06:57:54;;;;;;;;;;;;;;;10.50;76.93;101955.78;5076079;28;20437;-86
2023/01/13 07:00:20;;;;;;;;;;;;;;;10.48;76.66;101946.94;5098852;28;19959;-85
2023/01/13 07:02:46;;;;;;;;;;;;;;;10.45;76.86;101954.53;5081192;28;19951;-85
2023/01/13 07:05:11;;;;;;;;;;;;;;;10.50;77.03;101954.88;5079314;28;20436;-85
2023/01/13 07:07:37;;;;;;;;;;;;;;;10.43;76.86;101947.38;5087806;28;20402;-86
2023/01/13 07:10:03;;;;;;;;;;;;;;;10.49;76.89;101953.06;5072291;28;19975;-87
2023/01/13 07:12:28;;;;;;;;;;;;;;;10.52;76.85;101953.25;5087616;28;19916;-88
2023/01/13 07:17:38;;;;;;;;;;;;;;;10.46;76.85;101964.19;5084150;28;19981;-87
2023/01/13 07:20:04;;;;;;;;;;;;;;;10.43;76.85;101956.13;5072050;28;20370;-87
2023/01/13 07:22:29;;;;;;;;;;;;;;;10.43;77.07;101960.44;5068482;28;19940;-87
2023/01/13 07:24:56;;;;;;;;;;;;;;;10.42;76.77;101967.38;5068443;28;19916;-87
2023/01/13 07:27:22;;;;;;;;;;;;;;;10.38;76.77;101967.94;5084519;28;19916;-87
2023/01/13 07:29:47;;;;;;;;;;;;;;;10.39;76.97;101972.34;5086148;28;19923;-88
2023/01/13 07:32:14;;;;;;;;;;;;;;;10.36;77.07;101966.91;5072463;28;19926;-88
2023/01/13 07:34:40;;;;;;;;;;;;;;;10.40;76.99;101963.75;5065216;28;19920;-87
2023/01/13 07:37:07;;;;;;;;;;;;;;;10.31;76.97;101974.41;5074888;28;19913;-86
2023/01/13 07:39:33;;;;;;;;;;;;;;;10.35;76.93;101971.22;5050604;28;19987;-87
2023/01/13 07:44:43;;;;;;;;;;;;;;;10.32;76.94;101970.09;5085110;28;20503;-87
2023/01/13 07:47:10;;;;;;;;;;;;;;;10.26;77.25;101974.81;5085390;28;19925;-87
2023/01/13 07:49:35;;;;;;;;;;;;;;;10.26;77.21;101980.94;5086420;28;19919;-86
2023/01/13 07:52:01;;;;;;;;;;;;;;;10.22;77.39;101972.78;5082396;28;20304;-87
2023/01/13 07:54:26;;;;;;;;;;;;;;;10.30;77.35;101988.25;5086994;28;20003;-88
2023/01/13 07:56:51;;;;;;;;;;;;;;;10.25;77.56;101980.84;5070471;28;19998;-87
2023/01/13 07:59:17;;;;;;;;;;;;;;;10.22;77.32;101985.81;5093092;28;19934;-87
2023/01/13 08:01:42;;;;;;;;;;;;;;;10.34;77.00;101989.38;5069659;28;20464;-89
2023/01/13 08:04:07;;;;;;;;;;;;;;;10.35;77.05;101986.91;5087907;28;20404;-86
2023/01/13 08:06:35;;;;;;;;;;;;;;;10.37;76.99;101993.16;5070137;28;19963;-87
2023/01/13 08:09:00;;;;;;;;;;;;;;;10.25;77.50;101991.28;5050520;28;19920;-85
2023/01/13 08:11:26;;;;;;;;;;;;;;;10.25;77.47;102004.34;5094013;28;20293;-85
2023/01/13 08:13:54;;;;;;;;;;;;;;;10.34;77.38;102005.06;5053019;28;20378;-85
2023/01/13 08:16:19;;;;;;;;;;;;;;;10.32;77.30;101991.88;5069219;28;19912;-87
2023/01/13 08:18:44;;;;;;;;;;;;;;;10.32;77.12;101997.09;5051929;28;20015;-86
2023/01/13 08:21:13;;;;;;;;;;;;;;;10.33;77.15;102004.16;5082839;28;20321;-87
2023/01/13 08:23:39;;;;;;;;;;;;;;;10.39;76.79;102002.00;5078898;28;19916;-87
2023/01/13 08:26:09;;;;;;;;;;;;;;;10.37;77.16;102002.66;5090559;28;20389;-88
2023/01/13 08:28:34;;;;;;;;;;;;;;;10.40;76.71;102002.91;5079031;28;19916;-87
2023/01/13 08:31:03;;;;;;;;;;;;;;;10.42;76.82;102013.47;5056863;28;19912;-87
2023/01/13 08:33:29;;;;;;;;;;;;;;;10.37;76.99;102013.09;5074381;28;19916;-88
2023/01/13 08:35:55;;;;;;;;;;;;;;;10.37;77.05;102010.50;5086711;28;19912;-89
2023/01/13 08:38:20;;;;;;;;;;;;;;;10.39;76.53;102001.06;5053097;28;19948;-88
2023/01/13 08:40:46;;;;;;;;;;;;;;;10.45;76.51;102001.53;5086185;28;19912;-88
2023/01/13 08:43:11;;;;;;;;;;;;;;;10.43;76.90;102005.72;5087871;28;19916;-88
2023/01/13 08:45:36;;;;;;;;;;;;;;;10.42;76.89;102008.25;5053692;28;19913;-88
2023/01/13 08:48:02;;;;;;;;;;;;;;;10.44;76.82;102004.94;5095455;28;19912;-88
2023/01/13 08:50:28;;;;;;;;;;;;;;;10.41;76.98;102009.94;5069861;28;20373;-88
2023/01/13 08:52:53;;;;;;;;;;;;;;;10.43;76.60;102015.28;5086932;28;19913;-86
2023/01/13 08:55:18;;;;;;;;;;;;;;;10.42;76.70;102014.38;5086417;28;20037;-88
2023/01/13 08:57:44;;;;;;;;;;;;;;;10.47;76.34;102015.63;5087662;28;19913;-88
2023/01/13 09:00:10;;;;;;;;;;;;;;;10.43;76.89;102010.06;5090314;28;19916;-88
2023/01/13 09:02:37;;;;;;;;;;;;;;;10.44;76.90;102009.28;5046499;28;20007;-88
2023/01/13 09:05:05;;;;;;;;;;;;;;;10.41;76.79;102004.69;5083982;28;19916;-88
2023/01/13 09:07:31;;;;;;;;;;;;;;;10.44;76.78;102009.28;5088917;28;19912;-89
2023/01/13 09:09:57;;;;;;;;;;;;;;;10.36;77.12;102008.69;5074797;28;19966;-88
2023/01/13 09:15:06;;;;;;;;;;;;;;;10.46;76.33;102005.97;5077550;28;19919;-88
2023/01/13 09:17:32;;;;;;;;;;;;;;;10.45;76.32;101998.91;5086098;28;19912;-89
2023/01/13 09:19:57;;;;;;;;;;;;;;;10.45;76.63;102004.13;5090306;28;20011;-89
2023/01/13 09:22:25;;;;;;;;;;;;;;;10.43;76.67;102008.34;5059685;28;19974;-89
2023/01/13 09:24:51;;;;;;;;;;;;;;;10.43;76.75;102010.94;5088347;28;19927;-86
2023/01/13 09:27:16;;;;;;;;;;;;;;;10.47;76.27;102009.50;5071714;28;19912;-89
2023/01/13 09:29:42;;;;;;;;;;;;;;;10.44;76.46;102004.06;5093365;28;20404;-89
2023/01/13 09:32:10;;;;;;;;;;;;;;;10.45;76.51;102000.63;5090084;28;19916;-87
2023/01/13 09:37:19;;;;;;;;;;;;;;;10.37;76.14;101998.38;5079720;28;20247;-89
2023/01/13 09:39:46;;;;;;;;;;;;;;;10.39;76.15;101999.41;5088778;28;19913;-89
2023/01/13 09:45:18;;;;;;;;;;;;;;;10.35;76.55;101983.34;5068109;28;20328;-88
2023/01/13 09:47:58;;;;;;;;;;;;;;;10.36;76.85;101980.88;5074137;28;19973;-89
2023/01/13 09:50:30;;;;;;;;;;;;;;;10.44;76.45;101991.00;5085131;28;19919;-89
2023/01/13 09:52:56;;;;;;;;;;;;;;;10.44;76.16;101985.78;5059946;28;19951;-87
2023/01/13 09:55:29;;;;;;;;;;;;;;;10.47;76.23;101989.50;5090362;28;19956;-87
2023/01/13 09:57:54;;;;;;;;;;;;;;;10.41;76.14;101986.44;5091165;28;19968;-87
2023/01/13 10:00:21;;;;;;;;;;;;;;;10.42;76.44;101985.66;5089595;28;20643;-86
2023/01/13 10:02:52;;;;;;;;;;;;;;;10.38;76.60;101979.28;5088167;28;20355;-89
2023/01/13 10:05:37;;;;;;;;;;;;;;;10.39;76.21;101977.56;5073326;28;19917;-87
2023/01/13 10:08:05;;;;;;;;;;;;;;;10.37;76.50;101982.69;5090216;28;19916;-87
2023/01/13 10:10:39;;;;;;;;;;;;;;;10.35;76.24;101985.97;5089034;28;19913;-87
2023/01/13 10:13:13;;;;;;;;;;;;;;;10.34;76.75;101989.38;5063274;28;20383;-87
2023/01/13 10:15:39;;;;;;;;;;;;;;;10.34;76.55;101977.22;5071705;28;19924;-87
2023/01/13 10:18:19;;;;;;;;;;;;;;;10.33;76.69;101980.66;5089590;28;19912;-87
2023/01/13 10:20:48;;;;;;;;;;;;;;;10.32;76.74;101980.53;5071887;28;19920;-88
2023/01/13 10:23:14;;;;;;;;;;;;;;;10.37;76.37;101984.38;5101239;28;19951;-88
2023/01/13 10:25:39;;;;;;;;;;;;;;;10.34;76.28;101976.34;5073772;28;19947;-86
2023/01/13 10:28:09;;;;;;;;;;;;;;;10.27;76.80;101969.72;5073214;28;19919;-88
2023/01/13 10:30:38;;;;;;;;;;;;;;;10.30;76.56;101967.34;5088626;28;20461;-87
2023/01/13 10:33:16;;;;;;;;;;;;;;;10.32;76.80;101967.47;5088029;28;20367;-87
2023/01/13 10:35:55;;;;;;;;;;;;;;;10.33;76.37;101965.00;5085343;28;20594;-87
2023/01/13 10:38:31;;;;;;;;;;;;;;;10.28;76.36;101963.69;5055078;28;19920;-87
2023/01/13 10:41:00;;;;;;;;;;;;;;;10.17;76.92;101951.56;5070142;28;19927;-88
2023/01/13 10:43:26;;;;;;;;;;;;;;;10.24;76.62;101951.19;5072958;28;20393;-87
2023/01/13 10:45:52;;;;;;;;;;;;;;;10.17;77.05;101959.38;5079778;28;19931;-88
2023/01/13 10:48:17;;;;;;;;;;;;;;;10.21;76.81;101952.69;5088267;28;19920;-88
2023/01/13 10:50:44;;;;;;;;;;;;;;;10.22;76.49;101957.09;5088853;28;19977;-87
2023/01/13 10:53:16;;;;;;;;;;;;;;;10.23;76.81;101946.78;5091146;28;19912;-88
2023/01/13 10:55:43;;;;;;;;;;;;;;;10.29;76.75;101949.88;5092163;28;20385;-88
2023/01/13 10:58:12;;;;;;;;;;;;;;;10.22;76.92;101951.88;5071708;28;19982;-89
2023/01/13 11:00:38;;;;;;;;;;;;;;;10.21;76.63;101943.16;5076398;28;19919;-88
2023/01/13 11:03:19;;;;;;;;;;;;;;;10.24;76.78;101945.97;5095285;28;20313;-87
2023/01/13 11:05:55;;;;;;;;;;;;;;;10.22;76.53;101949.28;5044778;28;19916;-87
2023/01/13 11:08:23;;;;;;;;;;;;;;;10.19;76.86;101931.69;5088153;28;19920;-88
2023/01/13 11:10:49;;;;;;;;;;;;;;;10.17;76.77;101938.50;5088496;28;19913;-88
2023/01/13 11:13:16;;;;;;;;;;;;;;;10.17;76.76;101939.41;5071145;28;19912;-87
2023/01/13 11:15:44;;;;;;;;;;;;;;;10.19;76.67;101943.03;5069566;28;19959;-88
2023/01/13 11:18:22;;;;;;;;;;;;;;;10.13;74.27;101939.97;5086264;28;20358;-89
2023/01/13 11:20:48;;;;;;;;;;;;;;;10.04;75.97;101941.00;5064147;28;19916;-88
2023/01/13 11:23:15;;;;;;;;;;;;;;;10.08;76.27;101940.44;5087650;28;19948;-88
2023/01/13 11:25:42;;;;;;;;;;;;;;;10.06;76.45;101948.13;5053340;28;20011;-88
2023/01/13 11:28:26;;;;;;;;;;;;;;;10.12;76.40;101939.88;5085531;28;19916;-89
2023/01/13 11:31:03;;;;;;;;;;;;;;;10.19;76.22;101939.53;5089633;28;19947;-88
2023/01/13 11:33:32;;;;;;;;;;;;;;;10.18;76.16;101935.06;5081710;28;20451;-87
2023/01/13 11:36:00;;;;;;;;;;;;;;;10.19;76.32;101931.69;5051236;28;20450;-88
2023/01/13 11:38:43;;;;;;;;;;;;;;;10.13;76.25;101939.06;5071748;28;19916;-87
2023/01/13 11:41:17;;;;;;;;;;;;;;;10.23;76.16;101941.56;5081644;28;19939;-86
2023/01/13 11:43:43;;;;;;;;;;;;;;;10.19;76.66;101926.47;5055113;28;19923;-87
2023/01/13 11:46:08;;;;;;;;;;;;;;;10.24;76.12;101930.31;5072657;28;19912;-87
2023/01/13 11:48:34;;;;;;;;;;;;;;;10.23;75.84;101928.50;5087207;28;20321;-88
2023/01/13 11:51:12;;;;;;;;;;;;;;;10.26;75.87;101925.22;5069052;28;19916;-88
2023/01/13 11:53:56;;;;;;;;;;;;;;;10.23;76.41;101930.22;5069900;28;20393;-87
2023/01/13 11:56:40;;;;;;;;;;;;;;;10.37;76.08;101926.94;5087451;28;20389;-87
2023/01/13 11:59:24;;;;;;;;;;;;;;;10.28;76.13;101929.75;5067138;28;20011;-87
2023/01/13 12:01:53;;;;;;;;;;;;;;;10.32;76.21;101929.22;5068079;28;19938;-87
2023/01/13 12:18:38;;;;;;;2.47;1.88;;;;;;;10.30;76.80;101938.63;5078124;27;20951;-87
2023/01/13 12:21:15;;;;;;;3.47;1.80;;;;;;;10.29;76.73;101930.69;5066125;28;20106;-87
2023/01/13 12:23:50;;;;;;;3.20;1.90;;;;;;;10.19;76.92;101929.97;5061363;28;20036;-85
2023/01/13 12:26:16;;;;;;;3.38;1.95;;;;;;;9.98;77.19;101903.19;5067101;28;20127;-87
2023/01/13 12:29:04;;;;;;;4.97;1.90;;;;;;;10.02;77.31;101906.94;5066979;28;20086;-87
2023/01/13 12:31:29;;;;;;;3.05;1.80;;;;;;;9.96;77.00;101902.16;5064432;28;20029;-87
2023/01/13 12:33:58;;;;;;;2.58;1.73;;;;;;;10.16;77.48;101937.59;5064590;28;20028;-86
2023/01/13 12:36:43;;;;;;;5.30;1.80;;;;;;;10.23;77.30;101938.06;5068096;28;20028;-88
2023/01/13 12:39:27;;;;;;;2.15;1.65;;;;;;;10.28;77.06;101941.91;5067086;28;20020;-88
2023/01/13 12:45:09;;;;;;;4.13;1.73;;;;;;;10.26;77.59;101952.22;5047592;28;20094;-87
2023/01/13 12:47:43;;;;;;;1.85;1.50;;;;;;;10.14;77.72;101944.41;5066457;28;20086;-90
2023/01/13 12:51:19;;;;;;;2.90;1.73;;;;;;;10.28;77.71;101954.94;5046215;28;20036;-88
2023/01/13 12:54:30;;;;;;;2.85;1.70;;;;;;;10.33;77.52;101954.53;5056958;28;20040;-88
2023/01/13 12:56:58;;;;;;;4.35;1.90;;;;;;;10.20;77.68;101936.09;5064174;28;20033;-87
2023/01/13 12:59:25;;;;;;;4.30;1.92;;;;;;;10.33;77.96;101965.00;5062931;28;20025;-88
2023/01/13 13:02:11;;;;;;;3.65;2.05;;;;;;;10.31;78.39;101958.75;5062883;28;20082;-89
2023/01/13 13:04:45;;;;;;;3.40;1.80;;;;;;;10.27;77.96;101953.16;5055976;28;20489;-90
2023/01/13 13:07:22;;;;;;;5.07;1.98;;;;;;;10.19;78.27;101958.69;5050030;28;20411;-89
2023/01/13 13:10:00;;;;;;;4.00;2.20;;;;;;;10.24;78.51;101951.19;5063787;28;20049;-90
2023/01/13 13:28:37;;;;;;;4.43;2.40;;;;;;;10.34;78.11;101966.78;5115985;27;20856;-90
2023/01/13 13:31:24;;;;;;;5.22;2.58;;;;;;;10.34;78.39;101971.13;5056006;28;20036;-90
2023/01/13 13:34:04;;;;;;;4.88;2.38;;;;;;;10.22;78.51;101962.31;5076848;28;20052;-90
2023/01/13 13:37:00;;;;;;;4.28;2.60;;;;;;;10.33;78.51;101970.22;5083820;28;20079;-91
2023/01/13 13:48:18;;;;;;;5.75;2.38;;;;;;;10.27;78.67;101971.44;5066960;28;20036;-89
2023/01/13 13:51:01;;;;;;;5.70;2.72;;;;;;;10.20;79.04;101972.66;5069557;28;20024;-90
2023/01/13 13:53:36;;;;;;;3.63;2.20;;;;;;;10.25;78.90;101971.31;5051198;28;20486;-90
2023/01/13 13:56:03;;;;;;;4.22;2.40;;;;;;;10.31;78.79;101978.72;5062788;28;20379;-91
2023/01/13 13:58:34;;;;;;;4.25;2.50;;;;;;;10.26;78.61;101974.81;5045987;28;20039;-91
2023/01/13 14:01:07;;;;;;;6.22;2.63;;;;;;;10.07;78.94;101949.03;5051844;28;20029;-90
2023/01/13 14:03:35;;;;;;;3.50;2.25;;;;;;;10.13;78.60;101942.56;5056933;28;20025;-91
2023/01/13 14:06:21;;;;;;;4.00;2.30;;;;;;;10.29;78.57;101970.78;5051561;28;20100;-91
2023/01/13 14:08:49;;;;;;;3.95;2.40;;;;;;;10.25;78.94;101973.00;5061273;28;20532;-92
2023/01/13 14:11:30;;;;;;;6.05;2.88;;;;;;;10.28;79.23;101979.34;5050516;28;20028;-89
2023/01/13 14:14:14;;;;;;;4.53;2.65;;;;;;;10.27;78.76;101961.88;5063457;28;20178;-91
2023/01/13 14:16:45;;;;;;;4.85;2.78;;;;;;;10.36;78.81;101980.88;5078660;28;20021;-90
2023/01/13 14:19:33;;;;;;;4.88;2.60;;;;;;;10.31;79.59;101982.25;5082905;28;20025;-90